Terminal Aerodrome Forecast
Issued by NWS

Home | Current Version | Previous Version | Text Only | Print | Product List | Glossary Off
Versions: 1 2 3 4 5 6 7 8 9 10 11 12 13 14 15 16 17 18 19 20 21 22 23

000
FTUS43 KTOP 011500 AAC
TAFMHK
TAF AMD
KMHK 011557Z 0116/0212 34015G25KT 3SM -SN BR OVC020
      TEMPO 0116/0117 1/2SM SN BKN006 OVC012
     FM011700 35022G32KT 5SM -SN BR OVC008
     FM011800 34020G30KT P6SM OVC014
     FM020000 34015G22KT P6SM OVC025
     FM020400 35013KT P6SM SCT025=

USA.gov is the U.S. government's official web portal to all federal, state and local government web resources and services.